TLC weather

Licenciado Adolfo Lopez Mateos International Airport
Toluca, Mexico, Mexico

Public forecast

Using degrees Celsius for public forecast. Weather courtesy of forecast.io.

Current aviation weather report (METAR) for Licenciado Adolfo Lopez Mateos International Airport

Retrieved 2019/10/18 09:46 UTC (43 minutes ago):

MMTO 180946Z 00000KT 6SM BKN015 BKN070 12/10 A3029 RMK 8/530 HZY

Aviation forecast (TAF) for Licenciado Adolfo Lopez Mateos International Airport

Retrieved 2019/10/18 06:59 UTC (4 hours ago):

TAF MMTO 180552Z 1806/1912 16005KT 5SM HZ SCT005 BKN010 TX18/1821Z TN11/1812Z FM180900 00000KT 3SM BR HZ SCT005 BKN010 TEMPO 1810/1814 1SM BR BKN006 FM181500 13005KT 5SM HZ SCT020 BKN080 FM182100 13010KT P6SM BKN015CB OVC080 TEMPO 1821/1901 3SM TSRA FM190300 08005KT 5SM HZ SCT015 BKN070